sensor_id;sensor_type;location;lat;lon;timestamp;temperature;humidity
18163;DHT22;9206;50.994;4.538;2023-02-28T00:01:52;-0.50;99.90
18163;DHT22;9206;50.994;4.538;2023-02-28T00:04:47;-0.60;99.90
18163;DHT22;9206;50.994;4.538;2023-02-28T00:07:53;-0.60;99.90
18163;DHT22;9206;50.994;4.538;2023-02-28T00:10:41;-0.70;99.90
18163;DHT22;9206;50.994;4.538;2023-02-28T00:13:28;-0.70;99.90
18163;DHT22;9206;50.994;4.538;2023-02-28T00:16:22;-0.70;99.90
18163;DHT22;9206;50.994;4.538;2023-02-28T00:19:10;-0.70;99.90
18163;DHT22;9206;50.994;4.538;2023-02-28T00:22:16;-0.70;99.90
18163;DHT22;9206;50.994;4.538;2023-02-28T00:25:07;-0.70;99.90
18163;DHT22;9206;50.994;4.538;2023-02-28T00:27:58;-0.70;99.90
18163;DHT22;9206;50.994;4.538;2023-02-28T00:31:01;-0.70;99.90
18163;DHT22;9206;50.994;4.538;2023-02-28T00:33:49;-0.70;99.90
18163;DHT22;9206;50.994;4.538;2023-02-28T00:36:37;-0.70;99.90
18163;DHT22;9206;50.994;4.538;2023-02-28T00:39:28;-0.70;99.90
18163;DHT22;9206;50.994;4.538;2023-02-28T00:42:21;-0.80;99.90
18163;DHT22;9206;50.994;4.538;2023-02-28T00:45:10;-0.80;99.90
18163;DHT22;9206;50.994;4.538;2023-02-28T00:47:58;-0.90;99.90
18163;DHT22;9206;50.994;4.538;2023-02-28T00:50:48;-0.90;99.90
18163;DHT22;9206;50.994;4.538;2023-02-28T00:53:42;-0.90;99.90
18163;DHT22;9206;50.994;4.538;2023-02-28T00:56:30;-1.00;99.90
18163;DHT22;9206;50.994;4.538;2023-02-28T00:59:18;-1.00;99.90
18163;DHT22;9206;50.994;4.538;2023-02-28T01:02:11;-1.10;99.90
18163;DHT22;9206;50.994;4.538;2023-02-28T01:05:01;-1.20;99.90
18163;DHT22;9206;50.994;4.538;2023-02-28T01:07:55;-1.30;99.90
18163;DHT22;9206;50.994;4.538;2023-02-28T01:10:48;-1.30;99.90
18163;DHT22;9206;50.994;4.538;2023-02-28T01:13:40;-1.30;99.90
18163;DHT22;9206;50.994;4.538;2023-02-28T01:16:34;-1.30;99.90
18163;DHT22;9206;50.994;4.538;2023-02-28T01:19:27;-1.40;99.90
18163;DHT22;9206;50.994;4.538;2023-02-28T01:22:15;-1.50;99.90
18163;DHT22;9206;50.994;4.538;2023-02-28T01:25:02;-1.40;99.90
18163;DHT22;9206;50.994;4.538;2023-02-28T01:27:51;-1.40;99.90
18163;DHT22;9206;50.994;4.538;2023-02-28T01:30:47;-1.40;99.90
18163;DHT22;9206;50.994;4.538;2023-02-28T01:33:35;-1.40;99.90
18163;DHT22;9206;50.994;4.538;2023-02-28T01:36:26;-1.40;99.90
18163;DHT22;9206;50.994;4.538;2023-02-28T01:39:14;-1.40;99.90
18163;DHT22;9206;50.994;4.538;2023-02-28T01:42:03;-1.40;99.90
18163;DHT22;9206;50.994;4.538;2023-02-28T01:45:06;-1.40;99.90
18163;DHT22;9206;50.994;4.538;2023-02-28T01:48:07;-1.40;99.90
18163;DHT22;9206;50.994;4.538;2023-02-28T01:51:04;-1.50;99.90
18163;DHT22;9206;50.994;4.538;2023-02-28T01:54:01;-1.50;99.90
18163;DHT22;9206;50.994;4.538;2023-02-28T01:56:53;-1.50;99.90
18163;DHT22;9206;50.994;4.538;2023-02-28T02:07:13;-1.50;99.90
18163;DHT22;9206;50.994;4.538;2023-02-28T02:10:05;-1.60;99.90
18163;DHT22;9206;50.994;4.538;2023-02-28T02:13:02;-1.50;99.90
18163;DHT22;9206;50.994;4.538;2023-02-28T02:16:00;-1.60;99.90
18163;DHT22;9206;50.994;4.538;2023-02-28T02:19:15;-1.60;99.90
18163;DHT22;9206;50.994;4.538;2023-02-28T02:22:35;-1.70;99.90
18163;DHT22;9206;50.994;4.538;2023-02-28T02:25:30;-1.80;99.90
18163;DHT22;9206;50.994;4.538;2023-02-28T02:28:53;-1.90;99.90
18163;DHT22;9206;50.994;4.538;2023-02-28T02:35:15;-1.80;99.90
18163;DHT22;9206;50.994;4.538;2023-02-28T02:38:09;-1.80;99.90
18163;DHT22;9206;50.994;4.538;2023-02-28T02:41:04;-1.80;99.90
18163;DHT22;9206;50.994;4.538;2023-02-28T02:44:01;-1.90;99.90
18163;DHT22;9206;50.994;4.538;2023-02-28T02:46:52;-1.80;99.90
18163;DHT22;9206;50.994;4.538;2023-02-28T02:49:44;-1.80;99.90
18163;DHT22;9206;50.994;4.538;2023-02-28T02:52:40;-1.80;99.90
18163;DHT22;9206;50.994;4.538;2023-02-28T02:55:34;-1.80;99.90
18163;DHT22;9206;50.994;4.538;2023-02-28T02:58:29;-1.90;99.90
18163;DHT22;9206;50.994;4.538;2023-02-28T03:01:22;-1.80;99.90
18163;DHT22;9206;50.994;4.538;2023-02-28T03:04:18;-1.80;99.90
18163;DHT22;9206;50.994;4.538;2023-02-28T03:07:06;-1.90;99.90
18163;DHT22;9206;50.994;4.538;2023-02-28T03:09:56;-1.90;99.90
18163;DHT22;9206;50.994;4.538;2023-02-28T03:12:51;-1.90;99.90
18163;DHT22;9206;50.994;4.538;2023-02-28T03:15:48;-2.00;99.90
18163;DHT22;9206;50.994;4.538;2023-02-28T03:18:43;-2.00;99.90
18163;DHT22;9206;50.994;4.538;2023-02-28T03:21:42;-2.10;99.90
18163;DHT22;9206;50.994;4.538;2023-02-28T03:24:33;-2.10;99.90
18163;DHT22;9206;50.994;4.538;2023-02-28T03:27:34;-2.20;99.90
18163;DHT22;9206;50.994;4.538;2023-02-28T03:30:27;-2.20;99.90
18163;DHT22;9206;50.994;4.538;2023-02-28T03:33:27;-2.30;99.90
18163;DHT22;9206;50.994;4.538;2023-02-28T03:36:20;-2.40;99.90
18163;DHT22;9206;50.994;4.538;2023-02-28T03:39:11;-2.40;99.90
18163;DHT22;9206;50.994;4.538;2023-02-28T03:42:03;-2.40;99.90
18163;DHT22;9206;50.994;4.538;2023-02-28T03:45:08;-2.40;99.90
18163;DHT22;9206;50.994;4.538;2023-02-28T03:48:02;-2.30;99.90
18163;DHT22;9206;50.994;4.538;2023-02-28T03:50:55;-2.20;99.90
18163;DHT22;9206;50.994;4.538;2023-02-28T03:53:47;-2.20;99.90
18163;DHT22;9206;50.994;4.538;2023-02-28T03:56:48;-2.20;99.90
18163;DHT22;9206;50.994;4.538;2023-02-28T03:59:42;-2.20;99.90
18163;DHT22;9206;50.994;4.538;2023-02-28T04:02:35;-2.30;99.90
18163;DHT22;9206;50.994;4.538;2023-02-28T04:05:25;-2.30;99.90
18163;DHT22;9206;50.994;4.538;2023-02-28T04:08:19;-2.40;99.90
18163;DHT22;9206;50.994;4.538;2023-02-28T04:11:16;-2.40;99.90
18163;DHT22;9206;50.994;4.538;2023-02-28T04:14:06;-2.50;99.90
18163;DHT22;9206;50.994;4.538;2023-02-28T04:17:00;-2.40;99.90
18163;DHT22;9206;50.994;4.538;2023-02-28T04:19:52;-2.40;99.90
18163;DHT22;9206;50.994;4.538;2023-02-28T04:22:45;-2.40;99.90
18163;DHT22;9206;50.994;4.538;2023-02-28T04:25:34;-2.40;99.90
18163;DHT22;9206;50.994;4.538;2023-02-28T04:28:22;-2.50;99.90
18163;DHT22;9206;50.994;4.538;2023-02-28T04:31:21;-2.40;99.90
18163;DHT22;9206;50.994;4.538;2023-02-28T04:34:15;-2.40;99.90
18163;DHT22;9206;50.994;4.538;2023-02-28T04:37:04;-2.40;99.90
18163;DHT22;9206;50.994;4.538;2023-02-28T04:39:53;-2.40;99.90
18163;DHT22;9206;50.994;4.538;2023-02-28T04:42:41;-2.30;99.90
18163;DHT22;9206;50.994;4.538;2023-02-28T04:45:29;-2.20;99.90
18163;DHT22;9206;50.994;4.538;2023-02-28T04:48:19;-2.10;99.90
18163;DHT22;9206;50.994;4.538;2023-02-28T04:51:11;-1.90;99.90
18163;DHT22;9206;50.994;4.538;2023-02-28T04:54:01;-1.80;99.90
18163;DHT22;9206;50.994;4.538;2023-02-28T04:56:51;-1.70;99.90
18163;DHT22;9206;50.994;4.538;2023-02-28T04:59:39;-1.60;99.90
18163;DHT22;9206;50.994;4.538;2023-02-28T05:02:26;-1.60;99.90
18163;DHT22;9206;50.994;4.538;2023-02-28T05:05:15;-1.50;99.90
18163;DHT22;9206;50.994;4.538;2023-02-28T05:08:09;-1.40;99.90
18163;DHT22;9206;50.994;4.538;2023-02-28T05:14:13;-1.30;99.90
18163;DHT22;9206;50.994;4.538;2023-02-28T05:17:04;-1.30;99.90
18163;DHT22;9206;50.994;4.538;2023-02-28T05:19:52;-1.20;99.90
18163;DHT22;9206;50.994;4.538;2023-02-28T05:22:46;-1.10;99.90
18163;DHT22;9206;50.994;4.538;2023-02-28T05:25:33;-1.10;99.90
18163;DHT22;9206;50.994;4.538;2023-02-28T05:28:21;-1.00;99.90
18163;DHT22;9206;50.994;4.538;2023-02-28T05:31:10;-1.00;99.90
18163;DHT22;9206;50.994;4.538;2023-02-28T05:34:03;-0.90;99.90
18163;DHT22;9206;50.994;4.538;2023-02-28T05:36:52;-0.90;99.90
18163;DHT22;9206;50.994;4.538;2023-02-28T05:39:40;-0.90;99.90
18163;DHT22;9206;50.994;4.538;2023-02-28T05:42:33;-0.90;99.90
18163;DHT22;9206;50.994;4.538;2023-02-28T05:45:21;-0.80;99.90
18163;DHT22;9206;50.994;4.538;2023-02-28T05:48:10;-0.80;99.90
18163;DHT22;9206;50.994;4.538;2023-02-28T05:51:04;-0.80;99.90
18163;DHT22;9206;50.994;4.538;2023-02-28T05:53:54;-0.80;99.90
18163;DHT22;9206;50.994;4.538;2023-02-28T05:56:48;-0.80;99.90
18163;DHT22;9206;50.994;4.538;2023-02-28T05:59:36;-0.80;99.90
18163;DHT22;9206;50.994;4.538;2023-02-28T06:02:31;-0.70;99.90
18163;DHT22;9206;50.994;4.538;2023-02-28T06:05:21;-0.70;99.90
18163;DHT22;9206;50.994;4.538;2023-02-28T06:08:10;-0.70;99.90
18163;DHT22;9206;50.994;4.538;2023-02-28T06:10:57;-0.60;99.90
18163;DHT22;9206;50.994;4.538;2023-02-28T06:13:44;-0.60;99.90
18163;DHT22;9206;50.994;4.538;2023-02-28T06:16:37;-0.50;99.90
18163;DHT22;9206;50.994;4.538;2023-02-28T06:19:31;-0.50;99.90
18163;DHT22;9206;50.994;4.538;2023-02-28T06:22:20;-0.50;99.90
18163;DHT22;9206;50.994;4.538;2023-02-28T06:25:09;-0.40;99.90
18163;DHT22;9206;50.994;4.538;2023-02-28T06:28:00;-0.40;99.90
18163;DHT22;9206;50.994;4.538;2023-02-28T06:33:55;-0.40;99.90
18163;DHT22;9206;50.994;4.538;2023-02-28T06:37:04;-0.40;99.90
18163;DHT22;9206;50.994;4.538;2023-02-28T06:40:11;-0.40;99.90
18163;DHT22;9206;50.994;4.538;2023-02-28T06:43:35;-0.30;99.90
18163;DHT22;9206;50.994;4.538;2023-02-28T06:46:28;-0.30;99.90
18163;DHT22;9206;50.994;4.538;2023-02-28T06:49:18;-0.20;99.90
18163;DHT22;9206;50.994;4.538;2023-02-28T06:52:06;-0.20;99.90
18163;DHT22;9206;50.994;4.538;2023-02-28T06:54:56;-0.10;99.90
18163;DHT22;9206;50.994;4.538;2023-02-28T06:57:48;0.00;99.90
18163;DHT22;9206;50.994;4.538;2023-02-28T07:00:42;0.10;99.90
18163;DHT22;9206;50.994;4.538;2023-02-28T07:03:36;0.20;99.90
18163;DHT22;9206;50.994;4.538;2023-02-28T07:06:25;0.20;99.90
18163;DHT22;9206;50.994;4.538;2023-02-28T07:09:18;0.30;99.90
18163;DHT22;9206;50.994;4.538;2023-02-28T07:12:07;0.40;99.90
18163;DHT22;9206;50.994;4.538;2023-02-28T07:14:55;0.50;99.90
18163;DHT22;9206;50.994;4.538;2023-02-28T07:17:43;0.60;99.90
18163;DHT22;9206;50.994;4.538;2023-02-28T07:20:32;0.70;99.90
18163;DHT22;9206;50.994;4.538;2023-02-28T07:23:25;0.80;99.90
18163;DHT22;9206;50.994;4.538;2023-02-28T07:26:26;1.00;99.90
18163;DHT22;9206;50.994;4.538;2023-02-28T07:29:21;1.10;99.90
18163;DHT22;9206;50.994;4.538;2023-02-28T07:32:13;1.10;99.90
18163;DHT22;9206;50.994;4.538;2023-02-28T07:35:08;1.20;99.90
18163;DHT22;9206;50.994;4.538;2023-02-28T07:37:58;1.30;99.90
18163;DHT22;9206;50.994;4.538;2023-02-28T07:40:48;1.40;99.90
18163;DHT22;9206;50.994;4.538;2023-02-28T07:43:42;1.40;99.90
18163;DHT22;9206;50.994;4.538;2023-02-28T07:46:35;1.40;99.90
18163;DHT22;9206;50.994;4.538;2023-02-28T07:49:30;1.40;99.90
18163;DHT22;9206;50.994;4.538;2023-02-28T07:52:24;1.50;99.90
18163;DHT22;9206;50.994;4.538;2023-02-28T07:55:17;1.70;99.90
18163;DHT22;9206;50.994;4.538;2023-02-28T07:58:04;1.80;99.90
18163;DHT22;9206;50.994;4.538;2023-02-28T08:01:05;1.90;99.90
18163;DHT22;9206;50.994;4.538;2023-02-28T08:03:54;2.10;99.90
18163;DHT22;9206;50.994;4.538;2023-02-28T08:06:50;2.30;99.90
18163;DHT22;9206;50.994;4.538;2023-02-28T08:09:44;2.60;99.90
18163;DHT22;9206;50.994;4.538;2023-02-28T08:12:44;2.90;99.90
18163;DHT22;9206;50.994;4.538;2023-02-28T08:15:31;3.00;99.90
18163;DHT22;9206;50.994;4.538;2023-02-28T08:18:22;3.20;99.90
18163;DHT22;9206;50.994;4.538;2023-02-28T08:21:15;3.30;99.90
18163;DHT22;9206;50.994;4.538;2023-02-28T08:24:06;3.40;99.90
18163;DHT22;9206;50.994;4.538;2023-02-28T08:26:54;3.40;99.90
18163;DHT22;9206;50.994;4.538;2023-02-28T08:29:42;3.40;99.90
18163;DHT22;9206;50.994;4.538;2023-02-28T08:32:32;3.40;99.90
18163;DHT22;9206;50.994;4.538;2023-02-28T08:35:26;3.40;99.90
18163;DHT22;9206;50.994;4.538;2023-02-28T08:38:13;3.40;99.90
18163;DHT22;9206;50.994;4.538;2023-02-28T08:41:05;3.40;99.90
18163;DHT22;9206;50.994;4.538;2023-02-28T08:51:04;7.90;99.90
18163;DHT22;9206;50.994;4.538;2023-02-28T08:53:53;8.70;99.90
18163;DHT22;9206;50.994;4.538;2023-02-28T08:56:42;9.10;99.90
18163;DHT22;9206;50.994;4.538;2023-02-28T08:59:31;8.80;99.90
18163;DHT22;9206;50.994;4.538;2023-02-28T09:02:25;7.80;99.90
18163;DHT22;9206;50.994;4.538;2023-02-28T09:05:15;7.10;99.90
18163;DHT22;9206;50.994;4.538;2023-02-28T09:08:08;7.50;99.90
18163;DHT22;9206;50.994;4.538;2023-02-28T09:11:02;8.20;99.90
18163;DHT22;9206;50.994;4.538;2023-02-28T09:13:54;9.60;99.90
18163;DHT22;9206;50.994;4.538;2023-02-28T09:16:50;10.30;99.90
18163;DHT22;9206;50.994;4.538;2023-02-28T09:19:38;10.60;99.90
18163;DHT22;9206;50.994;4.538;2023-02-28T09:22:31;10.60;99.90
18163;DHT22;9206;50.994;4.538;2023-02-28T09:25:20;10.30;99.90
18163;DHT22;9206;50.994;4.538;2023-02-28T09:28:08;10.90;99.90
18163;DHT22;9206;50.994;4.538;2023-02-28T09:30:59;11.10;99.90
18163;DHT22;9206;50.994;4.538;2023-02-28T09:33:54;11.60;99.90
18163;DHT22;9206;50.994;4.538;2023-02-28T09:36:42;11.60;99.90
18163;DHT22;9206;50.994;4.538;2023-02-28T09:39:30;11.50;99.90
18163;DHT22;9206;50.994;4.538;2023-02-28T09:42:25;11.70;99.90
18163;DHT22;9206;50.994;4.538;2023-02-28T09:45:22;11.20;99.90
18163;DHT22;9206;50.994;4.538;2023-02-28T09:48:15;11.10;99.90
18163;DHT22;9206;50.994;4.538;2023-02-28T09:51:12;11.10;99.90
18163;DHT22;9206;50.994;4.538;2023-02-28T09:54:14;10.80;99.90
18163;DHT22;9206;50.994;4.538;2023-02-28T09:57:15;10.80;99.90
18163;DHT22;9206;50.994;4.538;2023-02-28T10:00:13;10.80;99.80
18163;DHT22;9206;50.994;4.538;2023-02-28T10:03:24;10.90;99.90
18163;DHT22;9206;50.994;4.538;2023-02-28T10:06:20;11.80;98.90
18163;DHT22;9206;50.994;4.538;2023-02-28T10:09:13;11.90;97.30
18163;DHT22;9206;50.994;4.538;2023-02-28T10:12:05;12.10;96.70
18163;DHT22;9206;50.994;4.538;2023-02-28T10:14:56;11.90;95.90
18163;DHT22;9206;50.994;4.538;2023-02-28T10:17:51;11.10;94.90
18163;DHT22;9206;50.994;4.538;2023-02-28T10:20:45;11.20;94.80
18163;DHT22;9206;50.994;4.538;2023-02-28T10:23:35;11.10;94.90
18163;DHT22;9206;50.994;4.538;2023-02-28T10:26:31;11.40;94.70
18163;DHT22;9206;50.994;4.538;2023-02-28T10:29:25;12.10;93.60
18163;DHT22;9206;50.994;4.538;2023-02-28T10:32:18;13.30;93.20
18163;DHT22;9206;50.994;4.538;2023-02-28T10:35:15;12.70;92.90
18163;DHT22;9206;50.994;4.538;2023-02-28T10:38:15;12.80;93.90
18163;DHT22;9206;50.994;4.538;2023-02-28T10:41:05;12.00;91.70
18163;DHT22;9206;50.994;4.538;2023-02-28T10:44:13;12.60;92.20
18163;DHT22;9206;50.994;4.538;2023-02-28T10:47:02;12.60;91.50
18163;DHT22;9206;50.994;4.538;2023-02-28T10:49:50;12.40;91.90
18163;DHT22;9206;50.994;4.538;2023-02-28T10:52:44;12.40;91.70
18163;DHT22;9206;50.994;4.538;2023-02-28T10:55:35;13.20;91.40
18163;DHT22;9206;50.994;4.538;2023-02-28T10:58:25;13.20;90.60
18163;DHT22;9206;50.994;4.538;2023-02-28T11:01:18;13.70;91.10
18163;DHT22;9206;50.994;4.538;2023-02-28T11:04:17;14.00;90.40
18163;DHT22;9206;50.994;4.538;2023-02-28T11:07:16;14.80;90.60
18163;DHT22;9206;50.994;4.538;2023-02-28T11:10:04;14.90;90.10
18163;DHT22;9206;50.994;4.538;2023-02-28T11:12:56;15.00;88.70
18163;DHT22;9206;50.994;4.538;2023-02-28T11:15:54;13.80;85.80
18163;DHT22;9206;50.994;4.538;2023-02-28T11:18:48;14.40;86.10
18163;DHT22;9206;50.994;4.538;2023-02-28T11:21:37;13.90;86.70
18163;DHT22;9206;50.994;4.538;2023-02-28T11:24:34;13.60;87.20
18163;DHT22;9206;50.994;4.538;2023-02-28T11:27:44;14.70;86.10
18163;DHT22;9206;50.994;4.538;2023-02-28T11:30:37;14.40;84.40
18163;DHT22;9206;50.994;4.538;2023-02-28T11:33:32;14.70;85.40
18163;DHT22;9206;50.994;4.538;2023-02-28T11:36:27;14.30;85.20
18163;DHT22;9206;50.994;4.538;2023-02-28T11:39:19;14.70;84.50
18163;DHT22;9206;50.994;4.538;2023-02-28T11:42:40;13.60;82.20
18163;DHT22;9206;50.994;4.538;2023-02-28T11:45:53;13.70;83.80
18163;DHT22;9206;50.994;4.538;2023-02-28T11:48:53;13.00;82.40
18163;DHT22;9206;50.994;4.538;2023-02-28T11:51:48;12.70;83.40
18163;DHT22;9206;50.994;4.538;2023-02-28T11:54:55;13.20;83.80
18163;DHT22;9206;50.994;4.538;2023-02-28T11:58:05;13.50;83.00
18163;DHT22;9206;50.994;4.538;2023-02-28T12:01:03;13.50;83.00
18163;DHT22;9206;50.994;4.538;2023-02-28T12:04:09;13.50;82.50
18163;DHT22;9206;50.994;4.538;2023-02-28T12:07:03;13.60;82.70
18163;DHT22;9206;50.994;4.538;2023-02-28T12:10:00;14.10;82.30
18163;DHT22;9206;50.994;4.538;2023-02-28T12:13:02;13.20;82.10
18163;DHT22;9206;50.994;4.538;2023-02-28T12:16:16;13.80;82.30
18163;DHT22;9206;50.994;4.538;2023-02-28T12:19:20;14.20;82.60
18163;DHT22;9206;50.994;4.538;2023-02-28T12:22:27;14.30;81.20
18163;DHT22;9206;50.994;4.538;2023-02-28T12:28:50;15.00;83.60
18163;DHT22;9206;50.994;4.538;2023-02-28T12:31:51;14.80;79.60
18163;DHT22;9206;50.994;4.538;2023-02-28T12:34:50;14.60;80.20
18163;DHT22;9206;50.994;4.538;2023-02-28T12:37:44;14.60;80.40
18163;DHT22;9206;50.994;4.538;2023-02-28T12:40:45;14.00;79.90
18163;DHT22;9206;50.994;4.538;2023-02-28T12:43:40;14.10;79.40
18163;DHT22;9206;50.994;4.538;2023-02-28T12:46:40;14.30;78.80
18163;DHT22;9206;50.994;4.538;2023-02-28T12:49:33;14.80;78.50
18163;DHT22;9206;50.994;4.538;2023-02-28T12:52:35;15.20;76.60
18163;DHT22;9206;50.994;4.538;2023-02-28T12:55:38;14.80;79.00
18163;DHT22;9206;50.994;4.538;2023-02-28T12:58:36;14.80;80.40
18163;DHT22;9206;50.994;4.538;2023-02-28T13:01:45;15.00;78.20
18163;DHT22;9206;50.994;4.538;2023-02-28T13:04:55;15.50;81.50
18163;DHT22;9206;50.994;4.538;2023-02-28T13:07:58;15.80;76.10
18163;DHT22;9206;50.994;4.538;2023-02-28T13:10:50;14.30;78.30
18163;DHT22;9206;50.994;4.538;2023-02-28T13:13:44;14.20;78.30
18163;DHT22;9206;50.994;4.538;2023-02-28T13:16:58;14.00;78.90
18163;DHT22;9206;50.994;4.538;2023-02-28T13:19:58;12.60;78.40
18163;DHT22;9206;50.994;4.538;2023-02-28T13:22:54;11.40;81.40
18163;DHT22;9206;50.994;4.538;2023-02-28T13:25:51;11.70;82.30
18163;DHT22;9206;50.994;4.538;2023-02-28T13:29:21;12.50;82.20
18163;DHT22;9206;50.994;4.538;2023-02-28T13:32:34;12.50;80.00
18163;DHT22;9206;50.994;4.538;2023-02-28T13:35:44;11.50;80.60
18163;DHT22;9206;50.994;4.538;2023-02-28T13:38:35;10.80;81.90
18163;DHT22;9206;50.994;4.538;2023-02-28T13:45:21;10.70;82.10
18163;DHT22;9206;50.994;4.538;2023-02-28T13:48:18;11.70;83.30
18163;DHT22;9206;50.994;4.538;2023-02-28T13:54:50;10.30;82.70
18163;DHT22;9206;50.994;4.538;2023-02-28T14:01:14;10.00;83.80
18163;DHT22;9206;50.994;4.538;2023-02-28T14:07:42;9.10;85.40
18163;DHT22;9206;50.994;4.538;2023-02-28T14:10:35;9.00;85.00
18163;DHT22;9206;50.994;4.538;2023-02-28T14:13:41;8.50;85.80
18163;DHT22;9206;50.994;4.538;2023-02-28T14:16:39;8.40;86.00
18163;DHT22;9206;50.994;4.538;2023-02-28T14:19:30;8.30;88.30
18163;DHT22;9206;50.994;4.538;2023-02-28T14:22:47;8.90;88.80
18163;DHT22;9206;50.994;4.538;2023-02-28T14:25:54;9.80;88.80
18163;DHT22;9206;50.994;4.538;2023-02-28T14:29:01;10.00;86.90
18163;DHT22;9206;50.994;4.538;2023-02-28T14:32:14;9.80;87.40
18163;DHT22;9206;50.994;4.538;2023-02-28T14:35:17;9.80;87.50
18163;DHT22;9206;50.994;4.538;2023-02-28T14:38:16;10.00;88.70
18163;DHT22;9206;50.994;4.538;2023-02-28T14:41:16;10.20;87.70
18163;DHT22;9206;50.994;4.538;2023-02-28T14:44:16;10.80;88.00
18163;DHT22;9206;50.994;4.538;2023-02-28T14:47:04;11.60;86.40
18163;DHT22;9206;50.994;4.538;2023-02-28T14:49:55;11.50;86.40
18163;DHT22;9206;50.994;4.538;2023-02-28T14:52:52;10.70;87.40
18163;DHT22;9206;50.994;4.538;2023-02-28T14:55:45;10.30;88.80
18163;DHT22;9206;50.994;4.538;2023-02-28T14:58:36;10.50;88.70
18163;DHT22;9206;50.994;4.538;2023-02-28T15:01:28;10.80;89.00
18163;DHT22;9206;50.994;4.538;2023-02-28T15:04:24;10.80;88.20
18163;DHT22;9206;50.994;4.538;2023-02-28T15:07:15;10.70;88.20
18163;DHT22;9206;50.994;4.538;2023-02-28T15:10:17;10.30;87.90
18163;DHT22;9206;50.994;4.538;2023-02-28T15:13:10;9.90;89.80
18163;DHT22;9206;50.994;4.538;2023-02-28T15:16:02;10.50;89.40
18163;DHT22;9206;50.994;4.538;2023-02-28T15:18:54;11.00;88.10
18163;DHT22;9206;50.994;4.538;2023-02-28T15:21:50;10.70;88.50
18163;DHT22;9206;50.994;4.538;2023-02-28T15:24:42;10.20;88.80
18163;DHT22;9206;50.994;4.538;2023-02-28T15:27:33;10.30;88.70
18163;DHT22;9206;50.994;4.538;2023-02-28T15:30:28;10.10;88.70
18163;DHT22;9206;50.994;4.538;2023-02-28T15:36:36;9.70;88.90
18163;DHT22;9206;50.994;4.538;2023-02-28T15:39:42;9.40;90.00
18163;DHT22;9206;50.994;4.538;2023-02-28T15:42:32;10.30;90.20
18163;DHT22;9206;50.994;4.538;2023-02-28T15:45:34;10.60;89.30
18163;DHT22;9206;50.994;4.538;2023-02-28T15:48:28;10.70;89.50
18163;DHT22;9206;50.994;4.538;2023-02-28T15:51:18;9.80;88.70
18163;DHT22;9206;50.994;4.538;2023-02-28T15:54:14;9.50;90.30
18163;DHT22;9206;50.994;4.538;2023-02-28T15:57:14;8.60;90.30
18163;DHT22;9206;50.994;4.538;2023-02-28T16:00:15;8.40;90.70
18163;DHT22;9206;50.994;4.538;2023-02-28T16:03:24;8.00;91.50
18163;DHT22;9206;50.994;4.538;2023-02-28T16:06:37;7.30;91.70
18163;DHT22;9206;50.994;4.538;2023-02-28T16:09:48;6.70;92.20
18163;DHT22;9206;50.994;4.538;2023-02-28T16:12:42;6.40;93.10
18163;DHT22;9206;50.994;4.538;2023-02-28T16:16:06;6.20;93.60
18163;DHT22;9206;50.994;4.538;2023-02-28T16:19:13;6.00;94.40
18163;DHT22;9206;50.994;4.538;2023-02-28T16:22:02;6.00;94.60
18163;DHT22;9206;50.994;4.538;2023-02-28T16:25:00;5.90;94.70
18163;DHT22;9206;50.994;4.538;2023-02-28T16:27:56;5.70;94.90
18163;DHT22;9206;50.994;4.538;2023-02-28T16:30:52;5.70;95.70
18163;DHT22;9206;50.994;4.538;2023-02-28T16:33:47;5.60;96.00
18163;DHT22;9206;50.994;4.538;2023-02-28T16:36:40;5.40;95.60
18163;DHT22;9206;50.994;4.538;2023-02-28T16:39:27;5.40;96.30
18163;DHT22;9206;50.994;4.538;2023-02-28T16:42:22;5.30;96.50
18163;DHT22;9206;50.994;4.538;2023-02-28T16:45:23;5.30;96.60
18163;DHT22;9206;50.994;4.538;2023-02-28T16:48:13;5.20;96.90
18163;DHT22;9206;50.994;4.538;2023-02-28T16:51:04;5.20;97.40
18163;DHT22;9206;50.994;4.538;2023-02-28T16:53:52;5.10;97.80
18163;DHT22;9206;50.994;4.538;2023-02-28T16:56:41;5.10;98.40
18163;DHT22;9206;50.994;4.538;2023-02-28T16:59:35;5.00;98.40
18163;DHT22;9206;50.994;4.538;2023-02-28T17:02:28;4.90;99.10
18163;DHT22;9206;50.994;4.538;2023-02-28T17:05:17;4.90;99.10
18163;DHT22;9206;50.994;4.538;2023-02-28T17:11:04;4.80;99.70
18163;DHT22;9206;50.994;4.538;2023-02-28T17:13:52;4.80;99.90
18163;DHT22;9206;50.994;4.538;2023-02-28T17:16:43;4.70;99.80
18163;DHT22;9206;50.994;4.538;2023-02-28T17:19:34;4.60;99.90
18163;DHT22;9206;50.994;4.538;2023-02-28T17:22:25;4.50;99.90
18163;DHT22;9206;50.994;4.538;2023-02-28T17:25:12;4.40;99.90
18163;DHT22;9206;50.994;4.538;2023-02-28T17:28:02;4.30;99.90
18163;DHT22;9206;50.994;4.538;2023-02-28T17:30:52;4.30;99.90
18163;DHT22;9206;50.994;4.538;2023-02-28T17:33:42;4.20;99.90
18163;DHT22;9206;50.994;4.538;2023-02-28T17:36:36;4.10;99.90
18163;DHT22;9206;50.994;4.538;2023-02-28T17:39:29;4.00;99.90
18163;DHT22;9206;50.994;4.538;2023-02-28T17:42:23;3.90;99.90
18163;DHT22;9206;50.994;4.538;2023-02-28T17:45:24;3.80;99.90
18163;DHT22;9206;50.994;4.538;2023-02-28T17:48:12;3.70;99.90
18163;DHT22;9206;50.994;4.538;2023-02-28T17:51:01;3.60;99.90
18163;DHT22;9206;50.994;4.538;2023-02-28T17:53:49;3.50;99.90
18163;DHT22;9206;50.994;4.538;2023-02-28T17:56:36;3.30;99.90
18163;DHT22;9206;50.994;4.538;2023-02-28T17:59:29;3.20;99.90
18163;DHT22;9206;50.994;4.538;2023-02-28T18:02:31;3.10;99.90
18163;DHT22;9206;50.994;4.538;2023-02-28T18:05:25;3.10;99.90
18163;DHT22;9206;50.994;4.538;2023-02-28T18:08:20;2.90;99.90
18163;DHT22;9206;50.994;4.538;2023-02-28T18:11:23;2.90;99.90
18163;DHT22;9206;50.994;4.538;2023-02-28T18:14:15;2.70;99.90
18163;DHT22;9206;50.994;4.538;2023-02-28T18:17:03;2.70;99.90
18163;DHT22;9206;50.994;4.538;2023-02-28T18:19:53;2.60;99.90
18163;DHT22;9206;50.994;4.538;2023-02-28T18:22:47;2.50;99.90
18163;DHT22;9206;50.994;4.538;2023-02-28T18:25:36;2.40;99.90
18163;DHT22;9206;50.994;4.538;2023-02-28T18:28:30;2.40;99.90
18163;DHT22;9206;50.994;4.538;2023-02-28T18:31:20;2.30;99.90
18163;DHT22;9206;50.994;4.538;2023-02-28T18:34:14;2.20;99.90
18163;DHT22;9206;50.994;4.538;2023-02-28T18:37:20;2.10;99.90
18163;DHT22;9206;50.994;4.538;2023-02-28T18:40:11;2.00;99.90
18163;DHT22;9206;50.994;4.538;2023-02-28T18:43:04;1.90;99.90
18163;DHT22;9206;50.994;4.538;2023-02-28T18:45:53;1.90;99.90
18163;DHT22;9206;50.994;4.538;2023-02-28T18:48:43;1.80;99.90
18163;DHT22;9206;50.994;4.538;2023-02-28T18:51:37;1.70;99.90
18163;DHT22;9206;50.994;4.538;2023-02-28T18:54:24;1.70;99.90
18163;DHT22;9206;50.994;4.538;2023-02-28T18:57:12;1.60;99.90
18163;DHT22;9206;50.994;4.538;2023-02-28T19:00:03;1.60;99.90
18163;DHT22;9206;50.994;4.538;2023-02-28T19:02:55;1.50;99.90
18163;DHT22;9206;50.994;4.538;2023-02-28T19:05:43;1.50;99.90
18163;DHT22;9206;50.994;4.538;2023-02-28T19:08:31;1.40;99.90
18163;DHT22;9206;50.994;4.538;2023-02-28T19:11:21;1.40;99.90
18163;DHT22;9206;50.994;4.538;2023-02-28T19:14:14;1.30;99.90
18163;DHT22;9206;50.994;4.538;2023-02-28T19:17:03;1.20;99.90
18163;DHT22;9206;50.994;4.538;2023-02-28T19:19:51;1.10;99.90
18163;DHT22;9206;50.994;4.538;2023-02-28T19:22:38;1.10;99.90
18163;DHT22;9206;50.994;4.538;2023-02-28T19:25:27;1.10;99.90
18163;DHT22;9206;50.994;4.538;2023-02-28T19:28:20;1.10;99.90
18163;DHT22;9206;50.994;4.538;2023-02-28T19:31:15;1.00;99.90
18163;DHT22;9206;50.994;4.538;2023-02-28T19:34:04;1.00;99.90
18163;DHT22;9206;50.994;4.538;2023-02-28T19:36:54;0.90;99.90